sensor_id;sensor_type;location;lat;lon;timestamp;P1;durP1;ratioP1;P2;durP2;ratioP2
28296;SDS011;62078;49.366;8.172;2023-01-06T15:24:48;8.90;;;5.18;;
28296;SDS011;62078;49.366;8.172;2023-01-06T15:27:15;9.65;;;4.13;;
28296;SDS011;62078;49.366;8.172;2023-01-06T15:29:52;8.82;;;4.40;;
28296;SDS011;62078;49.366;8.172;2023-01-06T15:32:19;14.20;;;6.63;;
28296;SDS011;62078;49.366;8.172;2023-01-06T15:34:48;12.07;;;7.70;;
28296;SDS011;62078;49.366;8.172;2023-01-06T15:37:16;11.50;;;6.70;;
28296;SDS011;62078;49.366;8.172;2023-01-06T15:39:44;11.95;;;6.53;;
28296;SDS011;62078;49.366;8.172;2023-01-06T15:42:11;13.65;;;6.78;;
28296;SDS011;62078;49.366;8.172;2023-01-06T15:44:38;13.18;;;7.50;;
28296;SDS011;62078;49.366;8.172;2023-01-06T15:47:14;10.02;;;6.40;;
28296;SDS011;62078;49.366;8.172;2023-01-06T15:49:52;8.52;;;5.35;;
28296;SDS011;62078;49.366;8.172;2023-01-06T15:52:30;11.70;;;5.57;;
28296;SDS011;62078;49.366;8.172;2023-01-06T15:55:05;10.73;;;5.53;;
28296;SDS011;62078;49.366;8.172;2023-01-06T15:57:43;9.02;;;5.40;;
28296;SDS011;62078;49.366;8.172;2023-01-06T16:00:19;10.50;;;5.32;;
28296;SDS011;62078;49.366;8.172;2023-01-06T16:02:47;10.05;;;5.43;;
28296;SDS011;62078;49.366;8.172;2023-01-06T16:08:04;9.15;;;5.10;;
28296;SDS011;62078;49.366;8.172;2023-01-06T16:10:38;6.95;;;4.65;;
28296;SDS011;62078;49.366;8.172;2023-01-06T16:13:22;8.00;;;4.50;;
28296;SDS011;62078;49.366;8.172;2023-01-06T16:16:05;9.98;;;4.95;;
28296;SDS011;62078;49.366;8.172;2023-01-06T16:18:50;11.93;;;4.32;;
28296;SDS011;62078;49.366;8.172;2023-01-06T16:23:48;8.38;;;4.10;;
28296;SDS011;62078;49.366;8.172;2023-01-06T16:26:29;8.77;;;4.40;;
28296;SDS011;62078;49.366;8.172;2023-01-06T16:28:58;7.20;;;3.47;;
28296;SDS011;62078;49.366;8.172;2023-01-06T16:33:55;7.18;;;3.38;;
28296;SDS011;62078;49.366;8.172;2023-01-06T16:36:40;8.88;;;3.53;;
28296;SDS011;62078;49.366;8.172;2023-01-06T16:39:06;6.15;;;3.17;;
28296;SDS011;62078;49.366;8.172;2023-01-06T16:41:32;6.90;;;3.28;;
28296;SDS011;62078;49.366;8.172;2023-01-06T16:43:57;5.85;;;3.10;;
28296;SDS011;62078;49.366;8.172;2023-01-06T16:46:23;6.57;;;2.92;;
28296;SDS011;62078;49.366;8.172;2023-01-06T16:48:51;9.10;;;3.45;;
28296;SDS011;62078;49.366;8.172;2023-01-06T16:51:19;5.75;;;2.88;;
28296;SDS011;62078;49.366;8.172;2023-01-06T16:53:46;12.32;;;3.22;;
28296;SDS011;62078;49.366;8.172;2023-01-06T16:56:17;6.90;;;2.72;;
28296;SDS011;62078;49.366;8.172;2023-01-06T16:58:46;8.88;;;3.08;;
28296;SDS011;62078;49.366;8.172;2023-01-06T17:01:13;8.80;;;3.17;;
28296;SDS011;62078;49.366;8.172;2023-01-06T17:03:41;7.00;;;3.10;;
28296;SDS011;62078;49.366;8.172;2023-01-06T17:06:14;6.88;;;2.83;;
28296;SDS011;62078;49.366;8.172;2023-01-06T17:08:42;4.03;;;2.50;;
28296;SDS011;62078;49.366;8.172;2023-01-06T17:11:14;4.15;;;2.15;;
28296;SDS011;62078;49.366;8.172;2023-01-06T17:13:49;7.53;;;2.97;;
28296;SDS011;62078;49.366;8.172;2023-01-06T17:16:37;4.95;;;2.67;;
28296;SDS011;62078;49.366;8.172;2023-01-06T17:19:08;5.43;;;2.70;;
28296;SDS011;62078;49.366;8.172;2023-01-06T17:21:38;5.45;;;2.47;;
28296;SDS011;62078;49.366;8.172;2023-01-06T17:24:08;4.53;;;2.40;;
28296;SDS011;62078;49.366;8.172;2023-01-06T17:26:43;5.72;;;2.47;;
28296;SDS011;62078;49.366;8.172;2023-01-06T17:29:13;6.00;;;2.50;;
28296;SDS011;62078;49.366;8.172;2023-01-06T17:31:48;8.25;;;2.33;;
28296;SDS011;62078;49.366;8.172;2023-01-06T17:34:16;6.07;;;2.72;;
28296;SDS011;62078;49.366;8.172;2023-01-06T17:36:45;5.35;;;2.38;;
28296;SDS011;62078;49.366;8.172;2023-01-06T17:44:37;6.43;;;2.60;;
28296;SDS011;62078;49.366;8.172;2023-01-06T17:52:36;6.60;;;2.33;;
28296;SDS011;62078;49.366;8.172;2023-01-06T17:58:16;8.00;;;2.05;;
28296;SDS011;62078;49.366;8.172;2023-01-06T18:00:43;4.38;;;2.53;;
28296;SDS011;62078;49.366;8.172;2023-01-06T18:08:28;7.97;;;2.00;;
28296;SDS011;62078;49.366;8.172;2023-01-06T18:10:56;7.95;;;2.08;;
28296;SDS011;62078;49.366;8.172;2023-01-06T18:13:45;3.92;;;1.90;;
28296;SDS011;62078;49.366;8.172;2023-01-06T18:18:45;4.22;;;1.70;;
28296;SDS011;62078;49.366;8.172;2023-01-06T18:28:58;4.97;;;2.17;;
28296;SDS011;62078;49.366;8.172;2023-01-06T18:31:34;5.78;;;2.30;;
28296;SDS011;62078;49.366;8.172;2023-01-06T18:34:15;5.65;;;2.20;;
28296;SDS011;62078;49.366;8.172;2023-01-06T18:36:49;4.00;;;2.00;;
28296;SDS011;62078;49.366;8.172;2023-01-06T18:39:17;4.65;;;1.90;;
28296;SDS011;62078;49.366;8.172;2023-01-06T18:41:47;4.03;;;1.67;;
28296;SDS011;62078;49.366;8.172;2023-01-06T18:44:16;6.93;;;1.80;;
28296;SDS011;62078;49.366;8.172;2023-01-06T18:46:44;4.10;;;1.90;;
28296;SDS011;62078;49.366;8.172;2023-01-06T18:49:13;3.22;;;1.70;;
28296;SDS011;62078;49.366;8.172;2023-01-06T18:51:40;4.88;;;2.00;;
28296;SDS011;62078;49.366;8.172;2023-01-06T18:54:17;3.50;;;1.73;;
28296;SDS011;62078;49.366;8.172;2023-01-06T18:56:44;6.60;;;2.20;;
28296;SDS011;62078;49.366;8.172;2023-01-06T18:59:17;4.00;;;1.92;;
28296;SDS011;62078;49.366;8.172;2023-01-06T19:01:46;3.42;;;1.73;;
28296;SDS011;62078;49.366;8.172;2023-01-06T19:04:29;3.10;;;1.50;;
28296;SDS011;62078;49.366;8.172;2023-01-06T19:06:57;4.07;;;1.50;;
28296;SDS011;62078;49.366;8.172;2023-01-06T19:12:10;3.08;;;1.50;;
28296;SDS011;62078;49.366;8.172;2023-01-06T19:14:42;2.47;;;1.48;;
28296;SDS011;62078;49.366;8.172;2023-01-06T19:17:23;3.15;;;1.80;;
28296;SDS011;62078;49.366;8.172;2023-01-06T19:19:58;3.85;;;1.40;;
28296;SDS011;62078;49.366;8.172;2023-01-06T19:22:26;2.60;;;1.48;;
28296;SDS011;62078;49.366;8.172;2023-01-06T19:24:58;2.35;;;1.25;;
28296;SDS011;62078;49.366;8.172;2023-01-06T19:27:38;5.43;;;1.60;;
28296;SDS011;62078;49.366;8.172;2023-01-06T19:33:12;3.63;;;1.80;;
28296;SDS011;62078;49.366;8.172;2023-01-06T19:35:49;4.43;;;1.52;;
28296;SDS011;62078;49.366;8.172;2023-01-06T19:40:52;4.53;;;1.60;;
28296;SDS011;62078;49.366;8.172;2023-01-06T19:43:25;5.85;;;1.58;;
28296;SDS011;62078;49.366;8.172;2023-01-06T19:45:56;3.83;;;1.67;;
28296;SDS011;62078;49.366;8.172;2023-01-06T19:48:25;3.72;;;1.77;;
28296;SDS011;62078;49.366;8.172;2023-01-06T19:53:50;3.45;;;1.50;;
28296;SDS011;62078;49.366;8.172;2023-01-06T19:58:53;2.72;;;1.42;;
28296;SDS011;62078;49.366;8.172;2023-01-06T20:01:28;3.88;;;1.70;;
28296;SDS011;62078;49.366;8.172;2023-01-06T20:03:56;3.45;;;1.42;;
28296;SDS011;62078;49.366;8.172;2023-01-06T20:06:22;6.15;;;2.28;;
28296;SDS011;62078;49.366;8.172;2023-01-06T20:08:48;2.92;;;1.58;;
28296;SDS011;62078;49.366;8.172;2023-01-06T20:11:17;3.13;;;1.42;;
28296;SDS011;62078;49.366;8.172;2023-01-06T20:13:48;3.15;;;1.40;;
28296;SDS011;62078;49.366;8.172;2023-01-06T20:16:14;3.28;;;1.45;;
28296;SDS011;62078;49.366;8.172;2023-01-06T20:18:40;3.97;;;1.45;;
28296;SDS011;62078;49.366;8.172;2023-01-06T20:21:06;4.85;;;1.30;;
28296;SDS011;62078;49.366;8.172;2023-01-06T20:23:32;4.35;;;1.60;;
28296;SDS011;62078;49.366;8.172;2023-01-06T20:25:58;3.75;;;1.50;;
28296;SDS011;62078;49.366;8.172;2023-01-06T20:28:23;4.53;;;2.10;;
28296;SDS011;62078;49.366;8.172;2023-01-06T20:30:49;5.32;;;1.90;;
28296;SDS011;62078;49.366;8.172;2023-01-06T20:33:15;2.70;;;1.35;;
28296;SDS011;62078;49.366;8.172;2023-01-06T20:35:41;3.17;;;1.40;;
28296;SDS011;62078;49.366;8.172;2023-01-06T20:38:06;6.03;;;1.50;;
28296;SDS011;62078;49.366;8.172;2023-01-06T20:40:32;3.45;;;1.33;;
28296;SDS011;62078;49.366;8.172;2023-01-06T20:42:58;3.95;;;1.52;;
28296;SDS011;62078;49.366;8.172;2023-01-06T20:45:23;5.72;;;1.55;;
28296;SDS011;62078;49.366;8.172;2023-01-06T20:47:49;3.13;;;1.48;;
28296;SDS011;62078;49.366;8.172;2023-01-06T20:50:15;4.68;;;1.73;;
28296;SDS011;62078;49.366;8.172;2023-01-06T20:52:41;3.28;;;1.50;;
28296;SDS011;62078;49.366;8.172;2023-01-06T20:55:09;7.38;;;1.73;;
28296;SDS011;62078;49.366;8.172;2023-01-06T20:57:35;3.10;;;1.40;;
28296;SDS011;62078;49.366;8.172;2023-01-06T21:00:00;4.50;;;1.50;;
28296;SDS011;62078;49.366;8.172;2023-01-06T21:02:26;2.95;;;1.23;;
28296;SDS011;62078;49.366;8.172;2023-01-06T21:04:52;4.03;;;1.30;;
28296;SDS011;62078;49.366;8.172;2023-01-06T21:07:18;2.85;;;1.27;;
28296;SDS011;62078;49.366;8.172;2023-01-06T21:09:43;3.50;;;1.25;;
28296;SDS011;62078;49.366;8.172;2023-01-06T21:12:09;3.10;;;1.38;;
28296;SDS011;62078;49.366;8.172;2023-01-06T21:14:34;3.88;;;1.52;;
28296;SDS011;62078;49.366;8.172;2023-01-06T21:17:00;4.50;;;1.50;;
28296;SDS011;62078;49.366;8.172;2023-01-06T21:19:27;3.00;;;1.17;;
28296;SDS011;62078;49.366;8.172;2023-01-06T21:21:53;4.75;;;1.30;;
28296;SDS011;62078;49.366;8.172;2023-01-06T21:24:19;4.10;;;1.40;;
28296;SDS011;62078;49.366;8.172;2023-01-06T21:26:44;2.97;;;1.48;;
28296;SDS011;62078;49.366;8.172;2023-01-06T21:29:10;2.38;;;1.15;;
28296;SDS011;62078;49.366;8.172;2023-01-06T21:31:35;7.38;;;1.40;;
28296;SDS011;62078;49.366;8.172;2023-01-06T21:34:01;4.47;;;1.35;;
28296;SDS011;62078;49.366;8.172;2023-01-06T21:36:27;4.43;;;1.48;;
28296;SDS011;62078;49.366;8.172;2023-01-06T21:38:53;4.95;;;1.50;;
28296;SDS011;62078;49.366;8.172;2023-01-06T21:41:18;5.90;;;1.75;;
28296;SDS011;62078;49.366;8.172;2023-01-06T21:44:03;8.43;;;1.45;;
28296;SDS011;62078;49.366;8.172;2023-01-06T21:46:28;3.72;;;1.38;;
28296;SDS011;62078;49.366;8.172;2023-01-06T21:48:54;3.55;;;1.38;;
28296;SDS011;62078;49.366;8.172;2023-01-06T21:51:20;3.65;;;1.35;;
28296;SDS011;62078;49.366;8.172;2023-01-06T21:53:45;4.15;;;1.40;;
28296;SDS011;62078;49.366;8.172;2023-01-06T21:56:11;6.53;;;1.50;;
28296;SDS011;62078;49.366;8.172;2023-01-06T21:58:37;4.85;;;1.42;;
28296;SDS011;62078;49.366;8.172;2023-01-06T22:01:03;8.23;;;2.10;;
28296;SDS011;62078;49.366;8.172;2023-01-06T22:03:28;4.85;;;1.73;;
28296;SDS011;62078;49.366;8.172;2023-01-06T22:05:54;3.67;;;1.20;;
28296;SDS011;62078;49.366;8.172;2023-01-06T22:08:20;3.28;;;1.35;;
28296;SDS011;62078;49.366;8.172;2023-01-06T22:10:46;4.55;;;1.48;;
28296;SDS011;62078;49.366;8.172;2023-01-06T22:13:13;4.15;;;1.58;;
28296;SDS011;62078;49.366;8.172;2023-01-06T22:15:43;5.70;;;1.60;;
28296;SDS011;62078;49.366;8.172;2023-01-06T22:18:08;3.35;;;1.60;;
28296;SDS011;62078;49.366;8.172;2023-01-06T22:20:35;5.13;;;1.58;;
28296;SDS011;62078;49.366;8.172;2023-01-06T22:23:05;5.32;;;1.50;;
28296;SDS011;62078;49.366;8.172;2023-01-06T22:25:34;3.60;;;1.50;;
28296;SDS011;62078;49.366;8.172;2023-01-06T22:28:00;4.55;;;1.95;;
28296;SDS011;62078;49.366;8.172;2023-01-06T22:30:27;6.63;;;1.58;;
28296;SDS011;62078;49.366;8.172;2023-01-06T22:32:54;3.53;;;1.58;;
28296;SDS011;62078;49.366;8.172;2023-01-06T22:35:20;4.20;;;1.50;;
28296;SDS011;62078;49.366;8.172;2023-01-06T22:37:46;8.05;;;1.80;;
28296;SDS011;62078;49.366;8.172;2023-01-06T22:40:12;6.38;;;1.67;;
28296;SDS011;62078;49.366;8.172;2023-01-06T22:42:39;4.88;;;1.77;;
28296;SDS011;62078;49.366;8.172;2023-01-06T22:45:05;4.05;;;1.70;;
28296;SDS011;62078;49.366;8.172;2023-01-06T22:47:31;3.22;;;1.55;;
28296;SDS011;62078;49.366;8.172;2023-01-06T22:49:57;4.90;;;1.50;;
28296;SDS011;62078;49.366;8.172;2023-01-06T22:52:24;5.93;;;1.80;;
28296;SDS011;62078;49.366;8.172;2023-01-06T22:54:50;4.40;;;1.60;;
28296;SDS011;62078;49.366;8.172;2023-01-06T22:57:15;4.50;;;1.63;;
28296;SDS011;62078;49.366;8.172;2023-01-06T22:59:41;4.00;;;1.55;;
28296;SDS011;62078;49.366;8.172;2023-01-06T23:02:07;4.40;;;1.33;;
28296;SDS011;62078;49.366;8.172;2023-01-06T23:04:32;6.30;;;1.70;;
28296;SDS011;62078;49.366;8.172;2023-01-06T23:06:58;4.25;;;1.63;;
28296;SDS011;62078;49.366;8.172;2023-01-06T23:09:24;3.17;;;1.40;;
28296;SDS011;62078;49.366;8.172;2023-01-06T23:11:49;4.18;;;1.70;;
28296;SDS011;62078;49.366;8.172;2023-01-06T23:14:15;4.38;;;1.70;;
28296;SDS011;62078;49.366;8.172;2023-01-06T23:16:41;3.65;;;1.50;;
28296;SDS011;62078;49.366;8.172;2023-01-06T23:19:09;4.75;;;1.98;;
28296;SDS011;62078;49.366;8.172;2023-01-06T23:21:37;5.45;;;1.70;;
28296;SDS011;62078;49.366;8.172;2023-01-06T23:24:03;4.50;;;1.75;;
28296;SDS011;62078;49.366;8.172;2023-01-06T23:26:32;3.60;;;1.60;;
28296;SDS011;62078;49.366;8.172;2023-01-06T23:29:02;4.00;;;1.65;;
28296;SDS011;62078;49.366;8.172;2023-01-06T23:31:29;5.55;;;1.75;;
28296;SDS011;62078;49.366;8.172;2023-01-06T23:34:04;4.57;;;1.73;;
28296;SDS011;62078;49.366;8.172;2023-01-06T23:36:31;5.20;;;1.65;;
28296;SDS011;62078;49.366;8.172;2023-01-06T23:38:59;6.10;;;2.03;;
28296;SDS011;62078;49.366;8.172;2023-01-06T23:41:29;3.78;;;1.63;;
28296;SDS011;62078;49.366;8.172;2023-01-06T23:43:56;4.13;;;1.77;;
28296;SDS011;62078;49.366;8.172;2023-01-06T23:46:26;3.53;;;1.40;;
28296;SDS011;62078;49.366;8.172;2023-01-06T23:48:57;6.75;;;1.73;;
28296;SDS011;62078;49.366;8.172;2023-01-06T23:51:23;3.75;;;1.48;;
28296;SDS011;62078;49.366;8.172;2023-01-06T23:53:50;3.63;;;1.60;;
28296;SDS011;62078;49.366;8.172;2023-01-06T23:56:17;3.47;;;1.88;;
28296;SDS011;62078;49.366;8.172;2023-01-06T23:58:45;5.53;;;1.77;;
